Ennis, Ireland
Current Conditions -  °F | °C
As of 10:00 AM on Saturday 29 Nov 2014 (Local Time) from EINN Reporting Station
Haze Haze  
Wind Chill:   Ceiling: 1600
Heat Index:   Visibility: 1.8mi
Dew Point:   Wind: 2mph
Humidity: 100%   Direction: 40°NE
Pressure: 29.8"   Gusts: NA
Location:  52.86°N, 8.99°W
Report Text: EINN 291000Z 04002KT 3000 BR FEW012 BKN016 07/07 Q1009 NOSIG
Loading
Personal Weather Stations






























Interactive Weather Map New forecast layout! Learn more

10-Day Weather Forecast

Advertisements
Track Severe Weather on mobile